Time;durP1;ratioP1;P1;durP2;ratioP2;P2;SDS_P1;SDS_P2;PMS_P1;PMS_P2;Temp;Humidity;BMP_temperature;BMP_pressure;BME280_temperature;BME280_humidity;BME280_pressure;Samples;Min_cycle;Max_cycle;Signal;HPM_P1;HPM_P2
2022/04/08 00:01:30;;;;;;;5.75;1.25;;;;;;;6.24;70.61;98937.16;5094860;28;20091;-64
2022/04/08 00:04:33;;;;;;;;;;;;;;;5.99;72.12;98931.75;5095301;28;20043;-64
2022/04/08 00:07:37;;;;;;;5.43;0.63;;;;;;;6.10;72.39;98941.53;5093619;28;19922;-64
2022/04/08 00:10:40;;;;;;;5.28;1.13;;;;;;;6.57;72.50;98917.03;5094722;28;20043;-64
2022/04/08 00:13:43;;;;;;;3.65;1.35;;;;;;;5.76;73.99;98938.25;5094546;28;20054;-64
2022/04/08 00:16:47;;;;;;;4.35;0.70;;;;;;;6.11;74.97;98962.19;5094571;28;20050;-64
2022/04/08 00:19:50;;;;;;;7.28;0.75;;;;;;;5.62;74.84;98967.59;5094488;28;20170;-64
2022/04/08 00:22:53;;;;;;;5.38;1.23;;;;;;;5.97;74.01;98967.34;5094350;28;20085;-64
2022/04/08 00:25:57;;;;;;;3.05;0.95;;;;;;;6.41;75.39;98976.84;5094118;28;20047;-64
2022/04/08 00:29:00;;;;;;;4.47;1.02;;;;;;;6.12;74.78;99000.16;5094199;28;20043;-64
2022/04/08 00:32:04;;;;;;;8.57;1.20;;;;;;;6.12;74.61;99013.16;5093365;28;20125;-64
2022/04/08 00:35:08;;;;;;;3.47;0.85;;;;;;;5.39;78.99;99048.38;5094111;28;20637;-64
2022/04/08 00:38:12;;;;;;;2.05;0.57;;;;;;;5.14;79.23;99034.19;5094045;28;20452;-64
2022/04/08 00:41:15;;;;;;;5.35;0.60;;;;;;;5.18;79.95;99040.03;5093981;28;20047;-64
2022/04/08 00:44:18;;;;;;;;;;;;;;;5.03;79.58;99026.13;5094237;28;20093;-64
2022/04/08 00:47:21;;;;;;;3.05;0.50;;;;;;;5.09;79.58;99043.94;5093822;28;19923;-64
2022/04/08 00:50:24;;;;;;;;;;;;;;;5.07;77.85;99023.31;5094278;28;20046;-64
2022/04/08 00:53:30;;;;;;;5.28;1.85;;;;;;;4.95;78.06;99033.50;5093805;28;19920;-64
2022/04/08 00:56:34;;;;;;;3.60;1.00;;;;;;;5.09;78.71;99046.53;5093563;28;20409;-64
2022/04/08 00:59:38;;;;;;;4.75;1.10;;;;;;;4.95;79.34;99039.50;5093644;28;20051;-64
2022/04/08 01:02:41;;;;;;;4.70;1.10;;;;;;;5.02;80.10;99055.56;5093874;28;20101;-64
2022/04/08 01:05:44;;;;;;;;;;;;;;;4.79;80.31;99052.41;5094277;28;20116;-64
2022/04/08 01:08:49;;;;;;;3.25;0.80;;;;;;;4.81;81.29;99022.09;5093597;28;20383;-64
2022/04/08 01:11:52;;;;;;;5.57;1.52;;;;;;;5.04;80.08;99032.97;5093424;28;20097;-64
2022/04/08 01:14:57;;;;;;;5.15;0.95;;;;;;;5.19;79.92;99028.75;5093400;28;20504;-64
2022/04/08 01:18:01;;;;;;;5.20;1.77;;;;;;;5.34;78.07;99033.94;5093586;28;20039;-64
2022/04/08 01:21:05;;;;;;;3.40;0.80;;;;;;;5.63;78.86;99041.84;5093427;28;20089;-64
2022/04/08 01:24:14;;;;;;;6.90;1.02;;;;;;;5.35;77.70;99053.72;5093053;28;20116;-64
2022/04/08 01:27:19;;;;;;;2.30;0.65;;;;;;;5.15;80.06;99059.16;5093086;28;20086;-64
2022/04/08 01:30:22;;;;;;;4.95;0.88;;;;;;;4.90;80.37;99076.00;5093128;28;20128;-64
2022/04/08 01:33:26;;;;;;;4.35;0.90;;;;;;;4.95;80.94;99059.41;5093394;28;20043;-64
2022/04/08 01:36:29;;;;;;;;;;;;;;;4.90;81.08;99042.31;5093644;28;20101;-64
2022/04/08 01:39:32;;;;;;;6.63;1.35;;;;;;;5.08;79.73;99042.28;5092854;28;19918;-64
2022/04/08 01:42:35;;;;;;;4.68;0.60;;;;;;;5.25;79.10;99065.53;5092831;28;20043;-64
2022/04/08 01:45:38;;;;;;;5.43;1.17;;;;;;;5.28;78.90;99062.75;5092780;28;20550;-64
2022/04/08 01:48:41;;;;;;;2.10;0.57;;;;;;;5.25;77.42;99036.19;5091956;28;20404;-64
2022/04/08 01:51:45;;;;;;;;;;;;;;;5.33;78.22;99045.22;5093128;28;20066;-64
2022/04/08 01:54:48;;;;;;;3.05;0.65;;;;;;;5.42;77.29;99048.22;5092704;28;19934;-64
2022/04/08 01:57:51;;;;;;;;;;;;;;;5.44;77.33;99043.78;5092754;28;20059;-64
2022/04/08 02:00:55;;;;;;;2.25;0.50;;;;;;;5.42;77.21;99048.22;5092537;28;20552;-64
2022/04/08 02:03:58;;;;;;;2.55;0.43;;;;;;;5.43;76.44;99061.09;5092420;28;20062;-64
2022/04/08 02:07:02;;;;;;;3.45;0.80;;;;;;;5.48;76.08;99058.25;5092251;28;20039;-64
2022/04/08 02:10:06;;;;;;;5.55;1.08;;;;;;;5.39;75.56;99051.81;5092322;28;20126;-63
2022/04/08 02:13:09;;;;;;;2.40;0.60;;;;;;;5.45;75.50;99066.19;5092594;28;20047;-64
2022/04/08 02:16:12;;;;;;;;;;;;;;;5.46;75.32;99068.72;5092761;28;20092;-64
2022/04/08 02:19:16;;;;;;;2.88;0.75;;;;;;;5.43;74.94;99073.25;5092627;28;20015;-64
2022/04/08 02:22:20;;;;;;;6.45;2.03;;;;;;;5.45;74.81;99084.34;5092140;28;20568;-64
2022/04/08 02:25:23;;;;;;;2.90;0.70;;;;;;;5.47;74.61;99088.53;5092335;28;20097;-64
2022/04/08 02:28:26;;;;;;;1.45;0.30;;;;;;;5.60;73.68;99089.53;5092138;28;20116;-64
2022/04/08 02:31:29;;;;;;;1.77;0.32;;;;;;;5.65;73.75;99102.25;5092027;28;20104;-64
2022/04/08 02:34:36;;;;;;;;;;;;;;;5.60;73.13;99099.91;5092468;28;20154;-64
2022/04/08 02:37:40;;;;;;;2.42;0.40;;;;;;;5.57;74.36;99107.00;5091945;28;19934;-64
2022/04/08 02:40:43;;;;;;;;;;;;;;;5.65;75.12;99115.22;5092371;28;20043;-64
2022/04/08 02:43:48;;;;;;;2.25;0.40;;;;;;;5.64;75.08;99110.09;5103310;28;20434;-64
2022/04/08 02:46:51;;;;;;;3.10;0.52;;;;;;;5.57;74.22;99109.59;5092070;28;20082;-64
2022/04/08 02:49:54;;;;;;;;;;;;;;;5.48;73.67;99115.28;5092360;28;20081;-64
2022/04/08 02:52:57;;;;;;;0.85;0.30;;;;;;;5.35;74.67;99131.50;5091845;28;19966;-64
2022/04/08 02:56:00;;;;;;;;;;;;;;;5.34;74.95;99139.34;5092168;28;20066;-64
2022/04/08 02:59:03;;;;;;;2.58;0.40;;;;;;;5.52;75.15;99137.53;5091857;28;19965;-64
2022/04/08 03:02:07;;;;;;;1.45;0.60;;;;;;;5.34;74.65;99145.38;5091790;28;20070;-64
2022/04/08 03:05:10;;;;;;;4.00;0.60;;;;;;;5.45;74.04;99131.00;5091722;28;20047;-64
2022/04/08 03:08:14;;;;;;;1.90;0.50;;;;;;;5.38;74.75;99140.03;5093562;28;20058;-64
2022/04/08 03:11:17;;;;;;;;;;;;;;;5.42;75.36;99165.69;5096262;28;20500;-64
2022/04/08 03:14:20;;;;;;;3.25;0.73;;;;;;;5.43;76.53;99153.59;5095688;28;20349;-64
2022/04/08 03:17:23;;;;;;;1.60;0.60;;;;;;;5.36;75.48;99153.09;5095641;28;20530;-64
2022/04/08 03:20:27;;;;;;;1.52;0.60;;;;;;;5.46;76.36;99153.44;5095654;28;20174;-64
2022/04/08 03:23:30;;;;;;;3.05;0.60;;;;;;;5.59;76.35;99147.50;5095691;28;20039;-64
2022/04/08 03:26:33;;;;;;;;;;;;;;;5.43;76.31;99153.59;5095843;28;20094;-64
2022/04/08 03:29:36;;;;;;;1.27;0.40;;;;;;;5.50;77.12;99139.38;5095471;28;19927;-64
2022/04/08 03:32:39;;;;;;;3.05;0.88;;;;;;;5.69;77.06;99147.00;5095424;28;20126;-64
2022/04/08 03:35:43;;;;;;;;;;;;;;;5.76;74.93;99146.59;5096089;28;20451;-63
2022/04/08 03:38:46;;;;;;;1.83;0.70;;;;;;;5.87;76.59;99155.53;5095492;28;19954;-64
2022/04/08 03:41:49;;;;;;;2.72;0.60;;;;;;;5.88;77.25;99149.44;5094747;28;20080;-64
2022/04/08 03:44:54;;;;;;;;;;;;;;;5.84;77.93;99148.78;5095550;28;20047;-64
2022/04/08 03:47:57;;;;;;;2.22;0.73;;;;;;;6.19;76.46;99139.06;5095051;28;19931;-64
2022/04/08 03:51:00;;;;;;;3.22;0.70;;;;;;;6.02;75.40;99157.31;5094981;28;20141;-64
2022/04/08 03:54:04;;;;;;;3.50;0.88;;;;;;;6.18;76.04;99158.13;5094982;28;20181;-64
2022/04/08 03:57:07;;;;;;;3.88;0.70;;;;;;;5.65;77.39;99164.50;5094821;28;20055;-64
2022/04/08 04:00:11;;;;;;;2.20;0.43;;;;;;;5.79;74.61;99161.16;5094861;28;20098;-64
2022/04/08 04:03:14;;;;;;;2.00;0.45;;;;;;;6.13;75.07;99170.56;5095043;28;20105;-64
2022/04/08 04:06:17;;;;;;;1.35;0.57;;;;;;;6.01;74.57;99158.25;5094729;28;20043;-65
2022/04/08 04:09:20;;;;;;;2.22;0.43;;;;;;;6.36;74.60;99165.81;5094682;28;20066;-65
2022/04/08 04:12:24;;;;;;;2.17;0.68;;;;;;;6.09;75.40;99171.63;5094530;28;20061;-65
2022/04/08 04:15:27;;;;;;;;;;;;;;;6.26;76.06;99176.72;5074384;28;20098;-64
2022/04/08 04:18:31;;;;;;;2.03;0.47;;;;;;;6.23;74.32;99174.28;5071398;28;20427;-65
2022/04/08 04:21:34;;;;;;;2.13;0.70;;;;;;;6.45;75.22;99178.28;5070762;28;20205;-64
2022/04/08 04:24:38;;;;;;;1.92;0.50;;;;;;;6.26;75.36;99184.50;5070586;28;20142;-65
2022/04/08 04:27:41;;;;;;;;;;;;;;;6.50;75.34;99184.88;5070814;28;20098;-65
2022/04/08 04:30:44;;;;;;;1.25;0.32;;;;;;;6.48;76.53;99186.75;5070940;28;19937;-66
2022/04/08 04:33:48;;;;;;;2.78;0.55;;;;;;;6.12;76.94;99202.59;5071145;28;20444;-65
2022/04/08 04:36:52;;;;;;;2.28;0.73;;;;;;;6.36;76.88;99196.97;5070756;28;20048;-64
2022/04/08 04:39:55;;;;;;;1.98;0.93;;;;;;;6.00;78.59;99190.31;5070067;28;20075;-64
2022/04/08 04:43:00;;;;;;;;;;;;;;;6.19;77.72;99182.31;5071042;28;20101;-65
2022/04/08 04:46:03;;;;;;;2.47;0.43;;;;;;;6.39;76.60;99187.25;5070031;28;19923;-65
2022/04/08 04:49:16;;;;;;;2.15;0.40;;;;;;;6.34;78.11;99184.06;5069641;28;20047;-66
2022/04/08 04:53:07;;;;;;;1.45;0.55;;;;;;;6.34;78.66;99204.00;5080690;28;20457;-64
2022/04/08 04:56:11;;;;;;;1.73;0.65;;;;;;;6.43;77.39;99208.69;5070515;28;20058;-63
2022/04/08 04:59:14;;;;;;;1.88;0.68;;;;;;;6.58;77.18;99202.63;5086959;28;20109;-63
2022/04/08 05:02:17;;;;;;;;;;;;;;;6.57;77.10;99203.53;5087548;28;20073;-64
2022/04/08 05:05:20;;;;;;;3.20;0.73;;;;;;;6.58;77.20;99201.81;5068245;28;20317;-61
2022/04/08 05:08:24;;;;;;;2.22;0.80;;;;;;;6.52;72.72;99200.38;5068001;28;20055;-63
2022/04/08 05:11:28;;;;;;;2.20;0.60;;;;;;;6.56;75.04;99191.47;5068306;28;20055;-62
2022/04/08 05:14:31;;;;;;;1.55;0.50;;;;;;;6.65;75.61;99182.34;5068192;28;20051;-63
2022/04/08 05:17:42;;;;;;;;;;;;;;;6.67;75.74;99191.72;5067581;28;20048;-63
2022/04/08 05:20:45;;;;;;;3.63;1.13;;;;;;;6.51;75.79;99185.72;5072092;28;20403;-63
2022/04/08 05:23:48;;;;;;;2.58;0.70;;;;;;;6.55;75.92;99194.19;5086957;28;20480;-64
2022/04/08 05:26:52;;;;;;;;;;;;;;;6.62;75.86;99196.34;5089586;28;20043;-63
2022/04/08 05:29:55;;;;;;;3.20;0.95;;;;;;;6.57;76.66;99192.31;5088248;28;20008;-63
2022/04/08 05:32:58;;;;;;;3.70;1.00;;;;;;;6.39;78.57;99191.63;5087324;28;20074;-63
2022/04/08 05:36:03;;;;;;;3.28;0.95;;;;;;;6.39;79.06;99196.81;5087768;28;20035;-63
2022/04/08 05:39:06;;;;;;;3.55;1.20;;;;;;;6.42;78.74;99188.84;5088303;28;20413;-63
2022/04/08 05:42:09;;;;;;;5.03;1.35;;;;;;;6.45;78.50;99191.28;5088230;28;20047;-63
2022/04/08 05:45:21;;;;;;;;;;;;;;;6.48;77.86;99199.72;5088463;28;20451;-63
2022/04/08 05:48:24;;;;;;;5.55;2.25;;;;;;;6.49;78.43;99193.59;5088384;28;19923;-63
2022/04/08 05:51:28;;;;;;;6.43;1.40;;;;;;;6.49;78.81;99197.97;5087861;28;20164;-63
2022/04/08 05:54:31;;;;;;;7.03;1.63;;;;;;;6.40;79.22;99204.50;5087580;28;20104;-62
2022/04/08 05:57:40;;;;;;;5.40;1.00;;;;;;;6.46;79.39;99209.34;5087696;28;20078;-63
2022/04/08 06:00:46;;;;;;;5.10;2.25;;;;;;;6.43;79.27;99206.09;5088341;28;20047;-63
2022/04/08 06:03:49;;;;;;;3.65;1.00;;;;;;;6.49;79.59;99208.34;5088160;28;20047;-62
2022/04/08 06:06:54;;;;;;;2.72;0.77;;;;;;;6.53;79.32;99197.69;5088156;28;20073;-63
2022/04/08 06:10:00;;;;;;;2.25;0.88;;;;;;;6.58;78.08;99202.63;5085971;28;20075;-63
2022/04/08 06:13:04;;;;;;;4.55;1.30;;;;;;;6.55;78.84;99200.22;5086155;28;20096;-63
2022/04/08 06:16:07;;;;;;;;;;;;;;;6.38;79.58;99189.91;5090229;28;20077;-63
2022/04/08 06:19:10;;;;;;;4.00;1.10;;;;;;;6.53;79.18;99189.06;5090443;28;19957;-63
2022/04/08 06:22:13;;;;;;;;;;;;;;;6.65;78.33;99190.13;5091936;28;20293;-63
2022/04/08 06:25:21;;;;;;;6.93;1.33;;;;;;;6.54;79.21;99188.16;5092114;28;19926;-63
2022/04/08 06:28:25;;;;;;;2.78;0.98;;;;;;;6.51;78.96;99185.72;5091953;28;20039;-63
2022/04/08 06:31:30;;;;;;;3.58;0.98;;;;;;;6.58;79.42;99189.66;5091890;28;20097;-63
2022/04/08 06:34:33;;;;;;;4.20;1.30;;;;;;;6.63;79.21;99191.97;5092279;28;20135;-63
2022/04/08 06:37:36;;;;;;;5.00;1.30;;;;;;;6.56;79.25;99186.28;5091978;28;20463;-63
2022/04/08 06:40:39;;;;;;;3.08;1.13;;;;;;;6.63;79.31;99189.38;5091857;28;20182;-63
2022/04/08 06:43:42;;;;;;;;;;;;;;;6.37;80.13;99183.06;5092117;28;20094;-65
2022/04/08 06:46:46;;;;;;;6.80;1.90;;;;;;;6.53;79.98;99178.66;5091705;28;20173;-63
2022/04/08 06:49:49;;;;;;;6.57;1.35;;;;;;;6.57;80.35;99164.56;5091716;28;20092;-63
2022/04/08 06:52:55;;;;;;;;;;;;;;;6.55;80.29;99163.84;5092227;28;20636;-63
2022/04/08 06:56:03;;;;;;;4.50;1.13;;;;;;;6.63;79.85;99173.78;5090273;28;19918;-64
2022/04/08 06:59:06;;;;;;;6.18;1.83;;;;;;;6.69;79.72;99169.06;5090394;28;20055;-69
2022/04/08 07:02:10;;;;;;;6.13;3.22;;;;;;;6.73;79.51;99165.41;5091735;28;20093;-63
2022/04/08 07:05:13;;;;;;;8.05;1.73;;;;;;;6.80;78.80;99173.66;5091725;28;20081;-63
2022/04/08 07:08:16;;;;;;;4.18;1.65;;;;;;;6.83;79.52;99167.44;5091686;28;20068;-63
2022/04/08 07:11:20;;;;;;;5.45;1.80;;;;;;;6.74;79.76;99161.03;5091271;28;20078;-63
2022/04/08 07:14:23;;;;;;;3.70;1.70;;;;;;;6.89;79.17;99151.47;5090780;28;20096;-63
2022/04/08 07:17:30;;;;;;;;;;;;;;;6.71;79.89;99149.03;5091851;28;20067;-62
2022/04/08 07:20:33;;;;;;;4.40;2.10;;;;;;;6.62;79.95;99146.97;5091111;28;20045;-63
2022/04/08 07:23:37;;;;;;;;;;;;;;;6.56;80.51;99162.91;5092049;28;20082;-62
2022/04/08 07:26:40;;;;;;;4.10;1.90;;;;;;;6.75;80.78;99158.31;5091510;28;19923;-61
2022/04/08 07:29:43;;;;;;;;;;;;;;;6.99;80.03;99163.84;5091726;28;20046;-62
2022/04/08 07:32:48;;;;;;;4.32;2.10;;;;;;;7.01;79.90;99157.72;5091383;28;19923;-67
2022/04/08 07:35:51;;;;;;;5.35;1.80;;;;;;;6.93;80.74;99156.41;5091339;28;20512;-67
2022/04/08 07:38:54;;;;;;;;;;;;;;;6.88;80.54;99152.41;5091892;28;20241;-67
2022/04/08 07:41:58;;;;;;;4.10;1.50;;;;;;;6.92;79.45;99154.75;5091514;28;20353;-62
2022/04/08 07:45:01;;;;;;;4.65;1.30;;;;;;;7.03;77.36;99151.50;5091305;28;20093;-62
2022/04/08 07:48:04;;;;;;;;;;;;;;;7.17;77.49;99158.47;5091526;28;20418;-62
2022/04/08 07:51:08;;;;;;;7.47;2.55;;;;;;;6.96;78.51;99147.63;5091134;28;20378;-62
2022/04/08 07:54:11;;;;;;;;;;;;;;;6.95;77.71;99138.97;5093584;28;20047;-62
2022/04/08 07:57:14;;;;;;;7.45;1.80;;;;;;;7.22;77.14;99154.69;5094638;28;19923;-62
2022/04/08 08:00:21;;;;;;;;;;;;;;;7.49;76.49;99143.50;5095300;28;20092;-62
2022/04/08 08:03:24;;;;;;;9.23;2.10;;;;;;;7.62;76.21;99146.19;5094750;28;19938;-62
2022/04/08 08:06:28;;;;;;;4.40;1.80;;;;;;;7.62;75.34;99139.22;5094732;28;20097;-63
2022/04/08 08:09:32;;;;;;;;;;;;;;;7.40;76.02;99134.53;5094471;28;20108;-62
2022/04/08 08:12:35;;;;;;;5.60;2.00;;;;;;;7.55;76.56;99137.94;5094494;28;20001;-62
2022/04/08 08:15:41;;;;;;;;;;;;;;;7.63;74.47;99135.72;5094722;28;20043;-62
2022/04/08 08:18:44;;;;;;;4.38;1.35;;;;;;;7.76;74.67;99129.75;5094212;28;20070;-62
2022/04/08 08:21:47;;;;;;;;;;;;;;;7.77;74.69;99134.00;5094670;28;20549;-62
2022/04/08 08:24:51;;;;;;;4.50;1.38;;;;;;;7.74;73.55;99131.59;5094449;28;19973;-62
2022/04/08 08:28:01;;;;;;;5.07;1.25;;;;;;;7.77;72.85;99119.22;5093231;28;20047;-63
2022/04/08 08:31:05;;;;;;;7.43;1.60;;;;;;;7.78;71.29;99122.66;5089701;28;20181;-63
2022/04/08 08:34:08;;;;;;;6.97;1.27;;;;;;;7.74;71.27;99121.19;5069551;28;20502;-62
2022/04/08 08:37:11;;;;;;;;;;;;;;;7.69;71.04;99118.88;5070029;28;20035;-63
2022/04/08 08:40:16;;;;;;;6.15;1.50;;;;;;;7.73;70.72;99116.94;5069262;28;19962;-62
2022/04/08 08:43:19;;;;;;;7.13;1.60;;;;;;;7.81;71.08;99110.28;5069937;28;20127;-62
2022/04/08 08:46:23;;;;;;;4.90;1.60;;;;;;;7.78;70.21;99105.28;5070373;28;20124;-61
2022/04/08 08:49:31;;;;;;;6.63;1.63;;;;;;;7.76;70.86;99104.56;5069286;28;20051;-61
2022/04/08 08:52:34;;;;;;;6.55;1.55;;;;;;;7.79;72.15;99106.97;5069986;28;20039;-62
2022/04/08 08:55:37;;;;;;;6.75;1.83;;;;;;;7.77;72.97;99100.19;5069737;28;20047;-62
2022/04/08 08:58:41;;;;;;;;;;;;;;;7.78;72.83;99099.25;5069292;28;20055;-62
2022/04/08 09:01:44;;;;;;;5.43;1.45;;;;;;;7.81;73.80;99092.06;5069692;28;19927;-63
2022/04/08 09:04:51;;;;;;;6.50;1.58;;;;;;;7.82;74.32;99085.94;5070122;28;20420;-62
2022/04/08 09:08:02;;;;;;;9.30;1.80;;;;;;;7.72;75.02;99087.44;5070065;28;20058;-62
2022/04/08 09:11:05;;;;;;;8.40;2.00;;;;;;;7.72;75.49;99084.84;5070010;28;20056;-62
2022/04/08 09:14:09;;;;;;;8.32;1.70;;;;;;;7.61;75.95;99075.13;5070310;28;20560;-62
2022/04/08 09:17:12;;;;;;;;;;;;;;;7.55;76.82;99070.31;5070102;28;20035;-62
2022/04/08 09:20:15;;;;;;;6.45;1.80;;;;;;;7.52;77.03;99069.69;5069153;28;19969;-63
2022/04/08 09:23:19;;;;;;;10.35;3.25;;;;;;;7.41;78.30;99068.59;5069164;28;20051;-63
2022/04/08 09:26:33;;;;;;;6.70;2.55;;;;;;;7.36;78.34;99069.78;5068925;28;20455;-63
2022/04/08 09:29:37;;;;;;;5.68;2.10;;;;;;;7.45;78.36;99058.81;5068598;28;20083;-62
2022/04/08 09:32:40;;;;;;;6.38;2.42;;;;;;;7.52;77.50;99060.09;5068157;28;20126;-63
2022/04/08 09:35:43;;;;;;;7.82;3.70;;;;;;;7.33;77.69;99054.38;5068321;28;20532;-62
2022/04/08 09:38:50;;;;;;;;;;;;;;;7.48;77.00;99043.03;5068698;28;20413;-62
2022/04/08 09:41:54;;;;;;;10.73;2.38;;;;;;;7.49;75.89;99039.47;5067974;28;20214;-62
2022/04/08 09:44:58;;;;;;;6.20;1.90;;;;;;;7.15;75.23;99023.41;5067459;28;20039;-62
2022/04/08 09:48:03;;;;;;;8.98;2.90;;;;;;;7.05;77.79;99024.91;5067114;28;20098;-62
2022/04/08 09:51:09;;;;;;;8.38;4.00;;;;;;;7.49;76.56;99010.03;5067432;28;20575;-64
2022/04/08 09:54:18;;;;;;;6.88;2.25;;;;;;;7.56;76.52;99009.56;5067552;28;20074;-63
2022/04/08 09:57:22;;;;;;;8.63;1.88;;;;;;;7.48;78.12;99001.41;5066935;28;20048;-63
2022/04/08 10:00:25;;;;;;;;;;;;;;;7.51;78.67;98996.03;5068204;28;20469;-62
2022/04/08 10:03:29;;;;;;;;;;;;;;;7.46;79.04;98988.50;5068829;28;19923;-62
2022/04/08 10:06:34;;;;;;;9.50;2.05;;;;;;;7.48;80.23;98975.41;5067607;28;20435;-62
2022/04/08 10:10:00;;;;;;;7.70;2.00;;;;;;;7.44;79.16;98968.75;5067022;28;20121;-62
2022/04/08 10:13:30;;;;;;;7.20;2.00;;;;;;;7.50;79.62;98972.69;5067288;28;20039;-62
2022/04/08 10:16:38;;;;;;;9.27;2.40;;;;;;;7.49;79.83;98966.66;5068319;28;20044;-62
2022/04/08 10:19:41;;;;;;;5.05;1.55;;;;;;;7.53;79.37;98973.34;5068901;28;20071;-62
2022/04/08 10:22:44;;;;;;;8.68;1.50;;;;;;;7.43;79.91;98969.66;5067928;28;20040;-62
2022/04/08 10:25:58;;;;;;;8.02;2.05;;;;;;;7.43;79.98;98967.06;5067105;28;20467;-62
2022/04/08 10:29:10;;;;;;;8.50;2.30;;;;;;;7.41;80.44;98968.94;5066919;28;20082;-62
2022/04/08 10:32:14;;;;;;;8.57;1.80;;;;;;;7.54;79.41;98959.41;5067690;28;20384;-64
2022/04/08 10:35:19;;;;;;;8.23;1.75;;;;;;;7.44;79.38;98969.56;5068227;28;20055;-63
2022/04/08 10:38:22;;;;;;;8.27;1.50;;;;;;;7.32;79.84;98969.53;5068340;28;20584;-62
2022/04/08 10:41:26;;;;;;;10.88;3.30;;;;;;;6.31;78.15;98994.75;5068046;28;20455;-65
2022/04/08 10:44:41;;;;;;;4.65;1.42;;;;;;;5.35;79.70;98999.31;5067934;28;20083;-62
2022/04/08 10:47:49;;;;;;;5.65;1.27;;;;;;;5.34;78.64;99007.19;5076197;28;20051;-62
2022/04/08 10:51:03;;;;;;;2.45;0.90;;;;;;;5.46;77.20;99003.09;5085755;28;20038;-67
2022/04/08 10:54:07;;;;;;;3.75;0.80;;;;;;;5.36;78.68;99008.78;5087285;28;20437;-62
2022/04/08 10:57:10;;;;;;;6.40;1.17;;;;;;;5.53;77.24;99000.06;5086551;28;20105;-66
2022/04/08 11:00:16;;;;;;;;;;;;;;;5.82;77.61;99001.00;5087285;28;20097;-63
2022/04/08 11:03:25;;;;;;;4.20;1.38;;;;;;;5.98;76.34;99000.16;5086644;28;20407;-61
2022/04/08 11:06:34;;;;;;;3.17;0.95;;;;;;;6.14;75.13;98985.34;5086003;28;20097;-64
2022/04/08 11:09:37;;;;;;;2.30;0.63;;;;;;;6.31;75.75;98980.94;5087228;28;20098;-67
2022/04/08 11:13:32;;;;;;;5.05;0.73;;;;;;;6.24;76.22;98972.69;5086842;28;20143;-63
2022/04/08 11:16:39;;;;;;;2.67;0.68;;;;;;;6.20;77.19;98979.81;5086493;28;20079;-63
2022/04/08 11:19:42;;;;;;;4.22;0.93;;;;;;;6.11;78.37;98967.38;5086615;28;20083;-62
2022/04/08 11:22:48;;;;;;;;;;;;;;;6.04;79.44;98969.50;5087536;28;20052;-62
2022/04/08 11:25:52;;;;;;;6.38;1.42;;;;;;;6.03;79.03;98967.84;5086353;28;19955;-63
2022/04/08 11:28:56;;;;;;;4.00;1.10;;;;;;;6.11;78.73;98959.59;5088736;28;20038;-63
2022/04/08 11:32:11;;;;;;;3.22;0.70;;;;;;;6.04;78.84;98950.50;5091953;28;20460;-62
2022/04/08 11:35:14;;;;;;;4.20;0.85;;;;;;;6.04;79.24;98948.72;5092143;28;20606;-62
2022/04/08 11:38:18;;;;;;;;;;;;;;;6.14;78.55;98949.03;5090951;28;20035;-62
2022/04/08 11:41:23;;;;;;;3.33;0.85;;;;;;;6.24;78.33;98944.94;5072693;28;19958;-62
2022/04/08 11:45:16;;;;;;;7.38;1.60;;;;;;;6.37;77.01;98932.06;5076322;28;20074;-66
2022/04/08 11:48:23;;;;;;;5.65;1.10;;;;;;;6.31;76.63;98929.00;5094205;28;20077;-61
2022/04/08 11:51:26;;;;;;;3.33;1.42;;;;;;;6.42;76.64;98921.44;5085574;28;20515;-63
2022/04/08 11:54:36;;;;;;;6.15;1.00;;;;;;;6.50;76.76;98920.00;5092525;28;20101;-62
2022/04/08 11:57:41;;;;;;;3.28;0.80;;;;;;;6.25;76.92;98920.69;5073778;28;20055;-63
2022/04/08 12:00:48;;;;;;;4.35;0.75;;;;;;;6.29;77.89;98913.53;5074322;28;20094;-62
2022/04/08 12:03:54;;;;;;;3.55;0.93;;;;;;;6.21;77.40;98914.00;5073603;28;20723;-61
2022/04/08 12:06:59;;;;;;;3.60;0.70;;;;;;;6.14;77.48;98907.50;5074012;28;20070;-61
2022/04/08 12:10:03;;;;;;;5.32;1.13;;;;;;;6.33;76.58;98911.59;5091101;28;20105;-61
2022/04/08 12:13:19;;;;;;;2.67;0.68;;;;;;;6.36;76.28;98906.22;5094482;28;20082;-62
2022/04/08 12:16:22;;;;;;;5.05;0.90;;;;;;;6.23;74.78;98906.97;5094446;28;20043;-61
2022/04/08 12:19:26;;;;;;;3.72;0.80;;;;;;;6.45;74.85;98911.69;5094637;28;20097;-61
2022/04/08 12:22:33;;;;;;;4.43;0.82;;;;;;;6.24;76.37;98907.78;5094024;28;20058;-62
2022/04/08 12:25:37;;;;;;;5.03;1.23;;;;;;;6.18;75.65;98902.97;5094247;28;20043;-62
2022/04/08 12:28:40;;;;;;;2.17;0.50;;;;;;;6.26;74.58;98903.34;5093922;28;20047;-63
2022/04/08 12:31:45;;;;;;;3.17;0.98;;;;;;;6.49;73.90;98907.13;5093893;28;20055;-63
2022/04/08 12:34:48;;;;;;;5.65;2.33;;;;;;;6.40;74.09;98898.13;5092308;28;20051;-63
2022/04/08 12:37:51;;;;;;;;;;;;;;;6.29;74.82;98896.22;5093637;28;20047;-63
2022/04/08 12:40:54;;;;;;;2.42;0.55;;;;;;;6.19;76.36;98889.91;5093592;28;19966;-63
2022/04/08 12:43:59;;;;;;;5.95;0.93;;;;;;;6.03;78.35;98883.94;5093513;28;20066;-63
2022/04/08 12:47:03;;;;;;;3.92;1.67;;;;;;;6.15;77.87;98882.38;5093076;28;20047;-63
2022/04/08 12:50:08;;;;;;;7.85;4.28;;;;;;;6.27;76.77;98872.09;5087993;28;20512;-63
2022/04/08 12:53:11;;;;;;;5.65;1.58;;;;;;;6.15;76.42;98875.44;5092500;28;20074;-63
2022/04/08 12:56:14;;;;;;;7.32;3.25;;;;;;;6.03;77.83;98879.63;5093321;28;20137;-62
2022/04/08 12:59:18;;;;;;;2.28;0.80;;;;;;;6.03;77.50;98881.34;5093212;28;20047;-64
2022/04/08 13:02:22;;;;;;;2.22;0.63;;;;;;;5.99;77.20;98872.09;5093349;28;20063;-62
2022/04/08 13:05:26;;;;;;;1.35;0.38;;;;;;;5.93;75.87;98856.88;5093062;28;20141;-63
2022/04/08 13:08:30;;;;;;;2.97;1.17;;;;;;;5.79;77.10;98866.28;5093366;28;20073;-63
2022/04/08 13:11:34;;;;;;;3.13;0.50;;;;;;;5.86;77.68;98876.31;5093717;28;20090;-63
2022/04/08 13:14:38;;;;;;;2.08;0.80;;;;;;;5.83;75.19;98841.00;5092513;28;20050;-63
2022/04/08 13:17:42;;;;;;;0.70;0.20;;;;;;;6.03;73.86;98838.09;5093168;28;20035;-62
2022/04/08 13:20:46;;;;;;;0.80;0.20;;;;;;;5.89;73.00;98837.22;5093093;28;20129;-63
2022/04/08 13:23:50;;;;;;;1.15;0.30;;;;;;;4.85;74.54;98847.50;5093050;28;20086;-63
2022/04/08 13:26:54;;;;;;;;;;;;;;;5.52;74.52;98842.84;5093591;28;20507;-62
2022/04/08 13:29:57;;;;;;;;;;;;;;;5.65;74.76;98848.13;5093661;28;19919;-62
2022/04/08 13:33:01;;;;;;;2.38;1.00;;;;;;;5.53;75.46;98848.84;5092354;28;19934;-63
2022/04/08 13:36:06;;;;;;;2.03;0.57;;;;;;;5.69;73.81;98831.47;5092951;28;20042;-63
2022/04/08 13:39:11;;;;;;;2.35;0.60;;;;;;;5.79;75.33;98824.81;5092969;28;20051;-63
2022/04/08 13:42:15;;;;;;;2.25;0.75;;;;;;;5.72;73.32;98822.69;5092347;28;20271;-62
2022/04/08 13:45:19;;;;;;;1.60;0.45;;;;;;;5.62;74.04;98827.56;5092889;28;20054;-62
2022/04/08 13:48:24;;;;;;;2.70;0.88;;;;;;;5.65;74.57;98822.22;5072404;28;20048;-62
2022/04/08 13:51:27;;;;;;;1.50;0.60;;;;;;;5.75;75.25;98831.09;5076318;28;20054;-62
2022/04/08 13:54:30;;;;;;;1.30;0.38;;;;;;;5.76;74.89;98814.59;5089326;28;20078;-62
2022/04/08 13:57:35;;;;;;;2.50;0.40;;;;;;;5.81;73.60;98824.72;5091637;28;20051;-62
2022/04/08 14:00:40;;;;;;;1.90;0.32;;;;;;;5.77;76.29;98831.81;5092634;28;20051;-62
2022/04/08 14:03:45;;;;;;;1.25;0.20;;;;;;;5.68;76.61;98829.81;5086900;28;20192;-62
2022/04/08 14:06:49;;;;;;;1.55;0.40;;;;;;;5.60;76.12;98813.84;5071596;28;20047;-62
2022/04/08 14:09:52;;;;;;;2.13;0.40;;;;;;;5.71;76.88;98811.47;5071975;28;20044;-62
2022/04/08 14:12:56;;;;;;;0.93;0.20;;;;;;;5.52;75.74;98801.34;5074662;28;20133;-62
2022/04/08 14:16:01;;;;;;;;;;;;;;;5.49;76.12;98806.72;5089127;28;20043;-62
2022/04/08 14:19:05;;;;;;;3.78;0.90;;;;;;;5.35;76.81;98817.88;5091975;28;20380;-62
2022/04/08 14:22:08;;;;;;;;;;;;;;;5.34;76.61;98812.78;5071864;28;20486;-62
2022/04/08 14:25:11;;;;;;;1.67;0.32;;;;;;;5.40;76.85;98801.25;5071679;28;20301;-62
2022/04/08 14:28:18;;;;;;;1.42;0.22;;;;;;;5.32;75.92;98786.94;5059475;28;20047;-62
2022/04/08 14:31:45;;;;;;;1.33;0.30;;;;;;;5.41;76.89;98803.72;5075775;28;20110;-63
2022/04/08 14:34:57;;;;;;;1.38;0.30;;;;;;;5.23;76.81;98790.09;5080964;28;20405;-62
2022/04/08 14:38:08;;;;;;;1.35;0.63;;;;;;;5.20;77.11;98795.47;5080739;28;20112;-62
2022/04/08 14:41:15;;;;;;;1.67;0.30;;;;;;;5.31;76.86;98803.44;5081500;28;20065;-62
2022/04/08 14:44:20;;;;;;;1.13;0.25;;;;;;;5.20;77.64;98804.97;5091143;28;20089;-62
2022/04/08 14:47:23;;;;;;;0.70;0.20;;;;;;;5.22;77.04;98803.13;5091744;28;20042;-62
2022/04/08 14:50:26;;;;;;;;;;;;;;;5.12;77.02;98801.06;5092134;28;20063;-62
2022/04/08 14:53:30;;;;;;;0.98;0.30;;;;;;;5.05;78.20;98791.16;5091717;28;19919;-62
2022/04/08 14:56:33;;;;;;;1.17;0.35;;;;;;;5.18;78.30;98799.06;5091330;28;20051;-63